Time;durP1;ratioP1;P1;durP2;ratioP2;P2;SDS_P1;SDS_P2;PMS_P1;PMS_P2;Temp;Humidity;BMP_temperature;BMP_pressure;BME280_temperature;BME280_humidity;BME280_pressure;Samples;Min_cycle;Max_cycle;Signal;HPM_P1;HPM_P2
2021/11/11 00:00:20;;;;;;;157.90;53.13;;;10.30;99.90;;;;;;5077461;28;20032;-69
2021/11/11 00:02:46;;;;;;;275.23;60.60;;;10.30;99.90;;;;;;5095885;28;20050;-69
2021/11/11 00:05:12;;;;;;;173.70;59.08;;;10.30;99.90;;;;;;5095042;28;20055;-68
2021/11/11 00:07:39;;;;;;;146.00;52.92;;;10.30;99.90;;;;;;5095720;28;20405;-68
2021/11/11 00:10:06;;;;;;;433.70;66.82;;;10.30;99.90;;;;;;5095752;28;20024;-69
2021/11/11 00:12:32;;;;;;;302.77;60.28;;;10.30;99.90;;;;;;5094786;28;20047;-68
2021/11/11 00:14:59;;;;;;;184.80;54.67;;;10.30;99.90;;;;;;5095302;28;20503;-68
2021/11/11 00:17:24;;;;;;;141.20;50.10;;;10.30;99.90;;;;;;5096010;28;20444;-68
2021/11/11 00:19:50;;;;;;;196.55;53.47;;;10.30;99.90;;;;;;5095314;28;20099;-68
2021/11/11 00:22:16;;;;;;;141.93;49.05;;;10.30;99.90;;;;;;5095255;28;20058;-68
2021/11/11 00:24:41;;;;;;;162.75;50.10;;;10.30;99.90;;;;;;5095209;28;20020;-68
2021/11/11 00:27:07;;;;;;;120.13;45.60;;;10.40;99.90;;;;;;5094636;28;20497;-68
2021/11/11 00:29:33;;;;;;;289.52;55.75;;;10.40;99.90;;;;;;5094956;28;20032;-69
2021/11/11 00:31:58;;;;;;;138.40;47.42;;;10.40;99.90;;;;;;5095343;28;20093;-68
2021/11/11 00:34:24;;;;;;;110.30;41.42;;;10.40;99.90;;;;;;5095001;28;20572;-68
2021/11/11 00:36:49;;;;;;;137.07;42.67;;;10.40;99.90;;;;;;5094831;28;20398;-68
2021/11/11 00:39:15;;;;;;;143.13;43.60;;;10.40;99.90;;;;;;5094087;28;20020;-68
2021/11/11 00:41:41;;;;;;;184.63;47.03;;;10.40;99.90;;;;;;5094750;28;20024;-69
2021/11/11 00:44:06;;;;;;;133.50;42.72;;;10.40;99.90;;;;;;5095071;28;20016;-68
2021/11/11 00:46:33;;;;;;;95.13;37.15;;;10.40;99.90;;;;;;5094771;28;20031;-68
2021/11/11 00:49:05;;;;;;;143.27;44.83;;;10.40;99.90;;;;;;5094680;28;20024;-68
2021/11/11 00:51:32;;;;;;;122.47;42.72;;;10.50;99.90;;;;;;5095278;28;20349;-68
2021/11/11 00:53:57;;;;;;;140.00;40.92;;;10.50;99.90;;;;;;5093683;28;20020;-68
2021/11/11 00:56:23;;;;;;;118.22;35.92;;;10.50;99.90;;;;;;5094500;28;20028;-68
2021/11/11 00:58:48;;;;;;;123.10;36.50;;;10.50;99.90;;;;;;5094414;28;20027;-68
2021/11/11 01:01:14;;;;;;;123.10;34.63;;;10.50;99.90;;;;;;5094492;28;20020;-68
2021/11/11 01:03:42;;;;;;;142.52;36.28;;;10.50;99.90;;;;;;5094684;28;20048;-68
2021/11/11 01:06:09;;;;;;;136.55;37.63;;;10.50;99.90;;;;;;5093819;28;20060;-68
2021/11/11 01:08:36;;;;;;;118.78;30.55;;;10.50;99.90;;;;;;5094289;28;20503;-69
2021/11/11 01:11:05;;;;;;;109.75;30.50;;;10.50;99.90;;;;;;5094292;28;20484;-68
2021/11/11 01:13:31;;;;;;;128.93;33.45;;;10.50;99.90;;;;;;5093716;28;20031;-69
2021/11/11 01:15:57;;;;;;;124.85;33.58;;;10.50;99.90;;;;;;5094105;28;20480;-68
2021/11/11 01:18:23;;;;;;;121.03;34.42;;;10.60;99.90;;;;;;5094355;28;20034;-68
2021/11/11 01:20:49;;;;;;;147.57;35.13;;;10.60;99.90;;;;;;5094571;28;20024;-69
2021/11/11 01:23:15;;;;;;;115.35;32.75;;;10.50;99.90;;;;;;5094098;28;20024;-68
2021/11/11 01:25:42;;;;;;;108.18;28.77;;;10.50;99.90;;;;;;5094220;28;20102;-68
2021/11/11 01:28:08;;;;;;;101.55;28.95;;;10.60;99.90;;;;;;5115957;22;20511;-66
2021/11/11 01:30:40;;;;;;;126.43;32.05;;;10.60;99.90;;;;;;5094208;28;20039;-66
2021/11/11 01:33:06;;;;;;;90.55;27.42;;;10.60;99.90;;;;;;5094523;28;20024;-66
2021/11/11 01:35:32;;;;;;;122.30;31.13;;;10.60;99.90;;;;;;5093588;28;20094;-66
2021/11/11 01:37:57;;;;;;;120.88;30.25;;;10.60;99.90;;;;;;5093942;28;20026;-66
2021/11/11 01:40:23;;;;;;;99.10;28.17;;;10.60;99.90;;;;;;5094051;28;20023;-66
2021/11/11 01:42:55;;;;;;;98.97;28.02;;;10.60;99.90;;;;;;5093858;28;20073;-66
2021/11/11 01:45:30;;;;;;;95.22;25.25;;;10.60;99.90;;;;;;5093751;28;20028;-66
2021/11/11 01:47:57;;;;;;;118.15;32.38;;;10.50;99.90;;;;;;5093585;28;20506;-66
2021/11/11 01:50:24;;;;;;;83.53;27.27;;;10.60;99.90;;;;;;5093205;28;20539;-66
2021/11/11 01:52:51;;;;;;;94.82;29.67;;;10.50;99.90;;;;;;5093565;28;20024;-66
2021/11/11 01:55:16;;;;;;;115.78;32.88;;;10.60;99.90;;;;;;5093497;28;20021;-66
2021/11/11 01:57:43;;;;;;;113.72;33.67;;;10.60;99.90;;;;;;5093778;28;20051;-66
2021/11/11 02:00:16;;;;;;;118.63;34.50;;;10.50;99.90;;;;;;5093417;28;20046;-66
2021/11/11 02:02:43;;;;;;;106.30;32.30;;;10.50;99.90;;;;;;5092839;28;20024;-66
2021/11/11 02:05:08;;;;;;;114.45;31.70;;;10.50;99.90;;;;;;5093175;28;20495;-66
2021/11/11 02:07:34;;;;;;;101.93;28.88;;;10.50;99.90;;;;;;5092659;28;20111;-66
2021/11/11 02:10:00;;;;;;;103.32;28.90;;;10.50;99.90;;;;;;5093285;28;20028;-66
2021/11/11 02:12:29;;;;;;;78.72;23.58;;;10.50;99.90;;;;;;5093083;28;20028;-66
2021/11/11 02:14:55;;;;;;;82.18;23.33;;;10.50;99.90;;;;;;5093291;28;20436;-66
2021/11/11 02:17:28;;;;;;;111.22;24.48;;;10.40;99.90;;;;;;5093402;28;20024;-66
2021/11/11 02:20:06;;;;;;;102.53;25.98;;;10.40;99.90;;;;;;5093214;28;20024;-66
2021/11/11 02:22:32;;;;;;;86.05;23.50;;;10.30;99.90;;;;;;5092867;28;20024;-66
2021/11/11 02:24:58;;;;;;;91.70;23.40;;;10.30;99.90;;;;;;5093270;28;20023;-66
2021/11/11 02:27:23;;;;;;;107.15;25.77;;;10.30;99.90;;;;;;5093450;28;20028;-66
2021/11/11 02:29:49;;;;;;;70.97;22.88;;;10.30;99.90;;;;;;5093044;28;20495;-66
2021/11/11 02:32:16;;;;;;;93.07;23.73;;;10.30;99.90;;;;;;5093118;28;20024;-66
2021/11/11 02:34:42;;;;;;;123.28;27.25;;;10.30;99.90;;;;;;5092622;28;20552;-66
2021/11/11 02:37:08;;;;;;;71.30;23.17;;;10.30;99.90;;;;;;5074949;28;20488;-66
2021/11/11 02:39:36;;;;;;;109.40;28.23;;;10.20;99.90;;;;;;5092969;28;20030;-66
2021/11/11 02:42:03;;;;;;;103.72;27.33;;;10.30;99.90;;;;;;5093322;28;20436;-66
2021/11/11 02:44:31;;;;;;;116.78;27.65;;;10.30;99.90;;;;;;5092785;28;20103;-66
2021/11/11 02:46:58;;;;;;;96.57;26.77;;;10.20;99.90;;;;;;5093280;28;20024;-66
2021/11/11 02:49:31;;;;;;;120.40;28.67;;;10.20;99.90;;;;;;5092798;28;20483;-66
2021/11/11 02:51:57;;;;;;;191.88;32.80;;;10.20;99.90;;;;;;5093246;28;20119;-66
2021/11/11 02:54:23;;;;;;;131.82;28.13;;;10.20;99.90;;;;;;5092946;28;20107;-66
2021/11/11 02:56:49;;;;;;;311.48;37.42;;;10.20;99.90;;;;;;5092857;28;20020;-66
2021/11/11 02:59:14;;;;;;;133.88;30.83;;;10.20;99.90;;;;;;5092269;28;20021;-66
2021/11/11 03:01:40;;;;;;;136.85;31.90;;;10.20;99.90;;;;;;5092872;28;20026;-66
2021/11/11 03:04:06;;;;;;;264.90;39.03;;;10.20;99.90;;;;;;5092878;28;20158;-66
2021/11/11 03:06:31;;;;;;;193.70;33.22;;;10.20;99.90;;;;;;5092856;28;20032;-66
2021/11/11 03:08:57;;;;;;;118.80;32.30;;;10.30;99.90;;;;;;5092210;28;20136;-66
2021/11/11 03:11:28;;;;;;;435.75;43.80;;;10.20;99.90;;;;;;5093074;28;20039;-66
2021/11/11 03:13:54;;;;;;;116.50;32.00;;;10.20;99.90;;;;;;5093043;28;20024;-66
2021/11/11 03:16:20;;;;;;;114.97;32.08;;;10.20;99.90;;;;;;5092370;28;20126;-66
2021/11/11 03:18:45;;;;;;;253.38;38.47;;;10.20;99.90;;;;;;5095571;28;20027;-66
2021/11/11 03:21:11;;;;;;;174.90;35.20;;;10.20;99.90;;;;;;5096472;28;20050;-66
2021/11/11 03:23:36;;;;;;;246.63;37.22;;;10.30;99.90;;;;;;5096978;28;20356;-66
2021/11/11 03:26:02;;;;;;;111.80;30.88;;;10.20;99.90;;;;;;5096356;28;20028;-66
2021/11/11 03:28:28;;;;;;;116.72;32.17;;;10.20;99.90;;;;;;5096268;28;20479;-66
2021/11/11 03:30:53;;;;;;;332.50;40.72;;;10.30;99.90;;;;;;5096024;28;20028;-66
2021/11/11 03:33:19;;;;;;;202.27;38.33;;;10.20;99.90;;;;;;5096185;28;20032;-66
2021/11/11 03:35:45;;;;;;;372.23;45.45;;;10.20;99.90;;;;;;5096071;28;20020;-66
2021/11/11 03:38:11;;;;;;;437.98;48.78;;;10.20;99.90;;;;;;5095689;28;20025;-66
2021/11/11 03:40:41;;;;;;;477.25;49.28;;;10.20;99.90;;;;;;5096130;28;20024;-66
2021/11/11 03:43:08;;;;;;;311.58;45.13;;;10.20;99.90;;;;;;5096310;28;20028;-66
2021/11/11 03:45:35;;;;;;;295.55;44.28;;;10.20;99.90;;;;;;5095951;28;20020;-66
2021/11/11 03:48:01;;;;;;;201.52;41.75;;;10.30;99.90;;;;;;5095392;28;20078;-66
2021/11/11 03:50:27;;;;;;;291.17;45.95;;;10.30;99.90;;;;;;5095885;28;20035;-66
2021/11/11 03:52:55;;;;;;;329.40;48.13;;;10.30;99.90;;;;;;5096095;28;20024;-66
2021/11/11 03:55:23;;;;;;;188.07;44.92;;;10.30;99.90;;;;;;5095938;28;20111;-66
2021/11/11 03:57:51;;;;;;;272.85;45.55;;;10.30;99.90;;;;;;5095927;28;20024;-66
2021/11/11 04:00:17;;;;;;;233.02;44.70;;;10.40;99.90;;;;;;5095613;28;20012;-66
2021/11/11 04:02:44;;;;;;;333.27;48.35;;;10.40;99.90;;;;;;5095107;28;20482;-66
2021/11/11 04:05:10;;;;;;;208.32;43.03;;;10.40;99.90;;;;;;5095852;28;20514;-66
2021/11/11 04:07:36;;;;;;;622.80;56.88;;;10.40;99.90;;;;;;5095864;28;20102;-66
2021/11/11 04:10:02;;;;;;;255.68;46.00;;;10.40;99.90;;;;;;5095734;28;20039;-66
2021/11/11 04:12:28;;;;;;;287.25;46.47;;;10.40;99.90;;;;;;5095700;28;20528;-66
2021/11/11 04:14:53;;;;;;;236.10;42.60;;;10.40;99.90;;;;;;5094885;28;20036;-66
2021/11/11 04:17:19;;;;;;;186.63;39.40;;;10.50;99.90;;;;;;5095299;28;20099;-66
2021/11/11 04:19:45;;;;;;;203.02;41.53;;;10.50;99.90;;;;;;5095562;28;20356;-66
2021/11/11 04:22:11;;;;;;;200.82;40.80;;;10.50;99.90;;;;;;5095515;28;20024;-66
2021/11/11 04:24:37;;;;;;;180.88;38.53;;;10.50;99.90;;;;;;5095237;28;20028;-66
2021/11/11 04:27:30;;;;;;;167.10;38.33;;;10.50;99.90;;;;;;5095055;28;20102;-66
2021/11/11 04:30:03;;;;;;;253.50;45.63;;;10.50;99.90;;;;;;5093247;28;20464;-66
2021/11/11 04:32:29;;;;;;;222.90;45.67;;;10.50;99.90;;;;;;5095333;28;20069;-66
2021/11/11 04:34:59;;;;;;;254.80;47.78;;;10.50;99.90;;;;;;5095042;28;20440;-66
2021/11/11 04:43:34;;;;;;;210.95;42.85;;;10.60;99.90;;;;;;5012959;28;20033;-66
2021/11/11 04:59:38;;;;;;;116.40;28.38;;;10.70;99.90;;;;;;5094249;28;20030;-66
2021/11/11 05:02:53;;;;;;;142.48;28.85;;;10.60;99.90;;;;;;5094779;28;20086;-66
2021/11/11 05:04:52;;;;;;;130.80;28.15;;;10.60;99.90;;;;;;5086035;28;20081;-66
2021/11/11 05:07:18;;;;;;;103.60;23.92;;;10.60;99.90;;;;;;5094409;28;20031;-66
2021/11/11 05:09:44;;;;;;;82.07;21.08;;;10.60;99.90;;;;;;5093955;28;20024;-66
2021/11/11 05:12:12;;;;;;;98.85;23.25;;;10.60;99.90;;;;;;5094884;28;20039;-66
2021/11/11 05:14:38;;;;;;;117.60;22.73;;;10.60;99.90;;;;;;5094163;28;20043;-66
2021/11/11 05:17:03;;;;;;;134.70;26.15;;;10.60;99.90;;;;;;5094415;28;20111;-66
2021/11/11 05:19:29;;;;;;;128.68;25.85;;;10.60;99.90;;;;;;5093688;28;20071;-66
2021/11/11 05:21:55;;;;;;;123.70;27.58;;;10.60;99.90;;;;;;5094112;28;20024;-66
2021/11/11 05:24:21;;;;;;;119.68;26.65;;;10.60;99.90;;;;;;5094030;28;20495;-66
2021/11/11 05:26:46;;;;;;;115.13;25.23;;;10.70;99.90;;;;;;5094279;28;20028;-66
2021/11/11 05:29:12;;;;;;;136.45;27.00;;;10.60;99.90;;;;;;5093827;28;20040;-66
2021/11/11 05:31:37;;;;;;;162.25;30.73;;;10.60;99.90;;;;;;5093913;28;20070;-66
2021/11/11 05:34:03;;;;;;;118.93;27.83;;;10.60;99.90;;;;;;5093386;28;20024;-66
2021/11/11 05:36:29;;;;;;;122.88;27.42;;;10.60;99.90;;;;;;5094035;28;20490;-66
2021/11/11 05:38:54;;;;;;;144.40;29.48;;;10.60;99.90;;;;;;5093743;28;20479;-66
2021/11/11 05:41:20;;;;;;;177.27;30.77;;;10.70;99.90;;;;;;5094152;28;20043;-66
2021/11/11 05:43:45;;;;;;;124.88;29.05;;;10.70;99.90;;;;;;5093236;28;20027;-66
2021/11/11 05:46:11;;;;;;;249.30;34.53;;;10.70;99.90;;;;;;5093886;28;20028;-66
2021/11/11 05:48:36;;;;;;;128.30;29.90;;;10.70;99.90;;;;;;5093877;28;20035;-66
2021/11/11 05:51:02;;;;;;;125.35;30.42;;;10.70;99.90;;;;;;5094031;28;20059;-66
2021/11/11 05:53:28;;;;;;;165.07;29.58;;;10.70;99.90;;;;;;5093078;28;20463;-66
2021/11/11 05:55:55;;;;;;;138.98;30.45;;;10.70;99.90;;;;;;5093556;28;20024;-66
2021/11/11 05:58:22;;;;;;;175.60;31.83;;;10.70;99.90;;;;;;5093800;28;20028;-66
2021/11/11 06:00:47;;;;;;;175.98;32.10;;;10.70;99.90;;;;;;5093741;28;20032;-66
2021/11/11 06:03:13;;;;;;;276.02;40.17;;;10.70;99.90;;;;;;5092966;28;20099;-66
2021/11/11 06:05:39;;;;;;;307.40;42.53;;;10.80;99.90;;;;;;5093720;28;20535;-66
2021/11/11 06:08:05;;;;;;;412.52;49.67;;;10.80;99.90;;;;;;5093363;28;20023;-66
2021/11/11 06:10:31;;;;;;;345.15;48.90;;;10.80;99.90;;;;;;5092870;28;20395;-66
2021/11/11 06:12:56;;;;;;;446.73;51.92;;;10.80;99.90;;;;;;5093296;28;20039;-66
2021/11/11 06:15:22;;;;;;;564.25;56.40;;;10.90;99.90;;;;;;5093563;28;20448;-66
2021/11/11 06:17:52;;;;;;;264.58;44.45;;;10.90;99.90;;;;;;5093539;28;20022;-66
2021/11/11 06:20:20;;;;;;;242.73;44.95;;;10.80;99.90;;;;;;5092963;28;20103;-66
2021/11/11 06:22:47;;;;;;;687.22;62.95;;;10.90;99.90;;;;;;5093500;28;20028;-66
2021/11/11 06:25:13;;;;;;;369.48;51.60;;;10.80;99.90;;;;;;5093257;28;20391;-66
2021/11/11 06:27:39;;;;;;;632.08;59.78;;;10.80;99.90;;;;;;5093121;28;20111;-66
2021/11/11 06:30:07;;;;;;;552.00;58.65;;;10.90;99.90;;;;;;5092966;28;20130;-66
2021/11/11 06:32:33;;;;;;;404.10;49.35;;;10.80;99.90;;;;;;5093036;28;20028;-66
2021/11/11 06:34:59;;;;;;;570.17;63.28;;;10.80;99.90;;;;;;5092587;28;20032;-66
2021/11/11 06:37:24;;;;;;;421.67;55.20;;;10.90;99.90;;;;;;5093064;28;20544;-66
2021/11/11 06:39:50;;;;;;;461.70;58.13;;;10.90;99.90;;;;;;5092986;28;20020;-66
2021/11/11 06:42:15;;;;;;;331.65;52.08;;;10.90;99.90;;;;;;5093065;28;20074;-66
2021/11/11 06:44:45;;;;;;;284.85;47.88;;;10.90;99.90;;;;;;5092647;28;20036;-66
2021/11/11 06:47:11;;;;;;;384.25;54.92;;;10.90;99.90;;;;;;5093290;28;20032;-66
2021/11/11 06:49:37;;;;;;;326.27;50.22;;;10.90;99.90;;;;;;5093253;28;20445;-66
2021/11/11 06:52:04;;;;;;;222.68;44.78;;;10.90;99.90;;;;;;5093294;28;20028;-66
2021/11/11 06:54:30;;;;;;;347.70;49.45;;;11.00;99.90;;;;;;5097215;28;20039;-66
2021/11/11 06:56:56;;;;;;;282.63;43.13;;;11.00;99.90;;;;;;5096777;28;20024;-66
2021/11/11 06:59:22;;;;;;;282.25;45.65;;;11.00;99.90;;;;;;5096954;28;20036;-66
2021/11/11 07:01:47;;;;;;;221.20;42.88;;;11.00;99.90;;;;;;5096273;28;20031;-66
2021/11/11 07:04:13;;;;;;;244.00;44.13;;;10.90;99.90;;;;;;5096827;28;20027;-66
2021/11/11 07:06:38;;;;;;;228.25;42.67;;;10.90;99.90;;;;;;5096852;28;20036;-66
2021/11/11 07:09:04;;;;;;;259.38;45.03;;;10.90;99.90;;;;;;5096851;28;20104;-66
2021/11/11 07:11:30;;;;;;;227.13;41.70;;;11.00;99.90;;;;;;5096673;28;20105;-66
2021/11/11 07:13:56;;;;;;;240.05;41.53;;;11.00;99.90;;;;;;5096581;28;20024;-66
2021/11/11 07:16:22;;;;;;;247.10;43.53;;;11.00;99.90;;;;;;5095965;28;20028;-66
2021/11/11 07:18:48;;;;;;;186.85;37.70;;;11.00;99.90;;;;;;5096669;28;20081;-66
2021/11/11 07:21:13;;;;;;;225.73;40.92;;;11.00;99.90;;;;;;5096741;28;20024;-66
2021/11/11 07:23:39;;;;;;;270.00;44.53;;;11.00;99.90;;;;;;5095875;28;20031;-66
2021/11/11 07:26:05;;;;;;;198.82;37.75;;;11.00;99.90;;;;;;5096323;28;20024;-66
2021/11/11 07:30:58;;;;;;;191.20;38.50;;;11.00;99.90;;;;;;5170580;22;20051;-68
2021/11/11 07:33:24;;;;;;;177.02;39.85;;;11.00;99.90;;;;;;5116592;28;20022;-68
2021/11/11 07:35:49;;;;;;;218.65;40.20;;;11.00;99.90;;;;;;5116230;28;20031;-68
2021/11/11 07:38:16;;;;;;;251.23;39.47;;;11.00;99.90;;;;;;5116506;28;20019;-68
2021/11/11 07:40:42;;;;;;;223.48;43.65;;;10.90;99.90;;;;;;5116388;28;20024;-68
2021/11/11 07:43:09;;;;;;;218.07;39.60;;;10.90;99.90;;;;;;5116748;28;20020;-67
2021/11/11 07:45:35;;;;;;;216.27;39.78;;;11.00;99.90;;;;;;5116631;28;20024;-68
2021/11/11 07:48:03;;;;;;;219.00;38.05;;;11.00;99.90;;;;;;5116358;28;20114;-68
2021/11/11 07:50:32;;;;;;;258.90;43.05;;;11.00;99.90;;;;;;5115825;28;20038;-69
2021/11/11 07:52:59;;;;;;;175.00;35.33;;;11.00;99.90;;;;;;5116275;28;20027;-68
2021/11/11 07:55:26;;;;;;;222.90;41.22;;;11.00;99.90;;;;;;5116190;28;20020;-68
2021/11/11 07:57:52;;;;;;;252.82;44.42;;;11.00;99.90;;;;;;5116432;28;20030;-68
2021/11/11 08:00:19;;;;;;;198.82;38.83;;;11.00;99.90;;;;;;5116074;28;20031;-68
2021/11/11 08:02:46;;;;;;;243.77;41.05;;;11.00;99.90;;;;;;5115470;28;20027;-68
2021/11/11 08:05:14;;;;;;;177.63;36.25;;;11.00;99.90;;;;;;5115959;28;20054;-68
2021/11/11 08:07:43;;;;;;;212.95;39.42;;;11.00;99.90;;;;;;5116274;28;20046;-68
2021/11/11 08:10:09;;;;;;;234.48;43.00;;;11.00;99.90;;;;;;5115858;28;20076;-68
2021/11/11 08:12:35;;;;;;;189.05;40.08;;;11.00;99.90;;;;;;5115909;28;20035;-68
2021/11/11 08:15:00;;;;;;;229.48;41.20;;;11.10;99.90;;;;;;5115783;28;20030;-68
2021/11/11 08:17:26;;;;;;;172.85;37.33;;;11.10;99.90;;;;;;5115421;28;20034;-68
2021/11/11 08:19:56;;;;;;;192.77;38.78;;;11.10;99.90;;;;;;5115654;28;20020;-68
2021/11/11 08:22:25;;;;;;;177.13;35.60;;;11.10;99.90;;;;;;5115985;28;20519;-68
2021/11/11 08:24:51;;;;;;;133.52;32.20;;;11.10;99.90;;;;;;5115641;28;20032;-68
2021/11/11 08:27:18;;;;;;;163.02;35.25;;;11.10;99.90;;;;;;5115689;28;20072;-68
2021/11/11 08:29:45;;;;;;;155.50;36.58;;;11.10;99.90;;;;;;5115327;28;20039;-68
2021/11/11 08:32:12;;;;;;;147.60;33.28;;;11.20;99.90;;;;;;5115207;28;20049;-68
2021/11/11 08:34:39;;;;;;;149.63;35.72;;;11.20;99.90;;;;;;5115473;28;20016;-68
2021/11/11 08:37:05;;;;;;;149.73;37.53;;;11.20;99.90;;;;;;5115360;28;20034;-68
2021/11/11 08:39:31;;;;;;;134.48;32.35;;;11.20;99.90;;;;;;5115456;28;20027;-68
2021/11/11 08:41:56;;;;;;;130.23;31.42;;;11.20;99.90;;;;;;5115329;28;20016;-68
2021/11/11 08:44:23;;;;;;;142.88;35.50;;;11.20;99.90;;;;;;5115491;28;20024;-68
2021/11/11 08:46:49;;;;;;;143.25;35.22;;;11.20;99.90;;;;;;5114682;28;20107;-68
2021/11/11 08:49:16;;;;;;;132.52;33.50;;;11.20;99.90;;;;;;5115333;28;20076;-68
2021/11/11 08:51:42;;;;;;;121.57;34.40;;;11.20;99.90;;;;;;5115359;28;20027;-68
2021/11/11 08:54:08;;;;;;;134.20;33.67;;;11.20;99.90;;;;;;5115338;28;20055;-68
2021/11/11 08:56:34;;;;;;;118.97;32.72;;;11.30;99.90;;;;;;5115024;28;20055;-68
2021/11/11 08:59:00;;;;;;;106.88;31.70;;;11.30;99.90;;;;;;5114735;28;20032;-68
2021/11/11 09:01:27;;;;;;;122.75;30.63;;;11.30;99.90;;;;;;5115070;28;20020;-68
2021/11/11 09:03:55;;;;;;;107.93;28.77;;;11.20;99.90;;;;;;5114820;28;20069;-68
2021/11/11 09:06:21;;;;;;;92.30;27.52;;;11.30;99.90;;;;;;5096589;28;20032;-68
2021/11/11 09:08:51;;;;;;;92.97;29.70;;;11.30;99.90;;;;;;5114938;28;20016;-68
2021/11/11 09:11:17;;;;;;;66.80;22.27;;;11.30;99.90;;;;;;5095991;28;20153;-68
2021/11/11 09:13:45;;;;;;;86.50;26.05;;;11.30;99.90;;;;;;5114950;28;20035;-68
2021/11/11 09:16:12;;;;;;;75.45;22.65;;;11.20;99.90;;;;;;5114290;28;20038;-68
2021/11/11 09:18:39;;;;;;;53.53;20.88;;;11.20;99.90;;;;;;5113878;28;20031;-68
2021/11/11 09:21:07;;;;;;;63.33;20.45;;;11.20;99.90;;;;;;5114540;28;20387;-68
2021/11/11 09:23:33;;;;;;;51.70;19.13;;;11.10;99.90;;;;;;5114792;28;20028;-68
2021/11/11 09:26:01;;;;;;;55.97;18.25;;;11.20;99.90;;;;;;5114740;28;20019;-67
2021/11/11 09:28:27;;;;;;;58.83;20.67;;;11.10;99.90;;;;;;5113863;28;20059;-68
2021/11/11 09:30:52;;;;;;;47.50;16.83;;;11.20;99.90;;;;;;5114261;28;20048;-68
2021/11/11 09:33:18;;;;;;;46.88;16.98;;;11.20;99.90;;;;;;5114468;28;20027;-68
2021/11/11 09:35:44;;;;;;;50.97;18.40;;;11.20;99.90;;;;;;5114195;28;20030;-67
2021/11/11 09:38:09;;;;;;;47.08;16.13;;;11.20;99.90;;;;;;5113678;28;20015;-68
2021/11/11 09:40:36;;;;;;;44.45;18.23;;;11.20;99.90;;;;;;5113939;28;20074;-68
2021/11/11 09:43:02;;;;;;;59.08;19.00;;;11.20;99.90;;;;;;5114092;28;20474;-68
2021/11/11 09:45:33;;;;;;;49.33;16.17;;;11.20;99.90;;;;;;5114029;28;20069;-68
2021/11/11 09:47:59;;;;;;;45.15;14.57;;;11.20;99.90;;;;;;5114703;28;20024;-68
2021/11/11 09:50:28;;;;;;;33.72;11.32;;;11.20;99.90;;;;;;5113984;28;20020;-67
2021/11/11 09:52:53;;;;;;;32.70;11.40;;;11.10;99.90;;;;;;5113463;28;20038;-68
2021/11/11 10:00:55;;;;;;;11.23;4.90;;;10.90;99.90;;;;;;5113903;28;20394;-68
2021/11/11 10:03:22;;;;;;;15.30;5.03;;;10.80;99.90;;;;;;5114215;28;20096;-68
2021/11/11 10:05:47;;;;;;;8.20;4.00;;;10.70;99.90;;;;;;5113279;28;20020;-67
2021/11/11 10:08:50;;;;;;;79.82;55.65;;;10.60;99.90;;;;;;5114091;28;20031;-68
2021/11/11 10:11:33;;;;;;;31.00;19.30;;;10.60;99.90;;;;;;5114065;28;20019;-67
2021/11/11 10:14:04;;;;;;;11.30;4.93;;;10.80;99.90;;;;;;5113979;28;20031;-68
2021/11/11 10:16:32;;;;;;;8.82;4.50;;;10.80;99.90;;;;;;5113407;28;20077;-68
2021/11/11 10:19:01;;;;;;;21.20;18.02;;;10.90;99.90;;;;;;5113571;28;20024;-68
2021/11/11 10:24:21;;;;;;;22.48;15.80;;;11.10;99.90;;;;;;5113988;28;20103;-68
2021/11/11 10:26:58;;;;;;;5.40;1.90;;;11.10;99.90;;;;;;5113074;28;20491;-68
2021/11/11 10:29:31;;;;;;;5.10;1.92;;;11.00;99.90;;;;;;5118028;28;20039;-68
2021/11/11 10:32:15;;;;;;;3.10;2.30;;;11.00;99.90;;;;;;5117837;28;20440;-68
2021/11/11 10:34:52;;;;;;;3.13;1.55;;;11.10;99.90;;;;;;5117863;28;20028;-68
2021/11/11 10:37:19;;;;;;;3.47;2.05;;;11.00;99.90;;;;;;5117973;28;20168;-69
2021/11/11 10:40:09;;;;;;;2.33;1.80;;;11.00;99.90;;;;;;5117392;28;20030;-68
2021/11/11 10:42:36;;;;;;;2.10;1.67;;;11.20;99.90;;;;;;5118260;28;20039;-68
2021/11/11 10:45:08;;;;;;;4.65;1.92;;;11.20;99.90;;;;;;5117593;28;20031;-68
2021/11/11 10:47:35;;;;;;;6.68;4.72;;;11.20;99.90;;;;;;5117441;28;20024;-68
2021/11/11 10:50:04;;;;;;;2.80;1.90;;;11.10;99.90;;;;;;5117473;28;20125;-68
2021/11/11 10:52:37;;;;;;;3.55;1.80;;;11.10;99.90;;;;;;5117171;28;20027;-68
2021/11/11 10:55:12;;;;;;;;;;;11.10;99.90;;;;;;5118038;28;20028;-68
2021/11/11 10:57:42;;;;;;;9.00;4.70;;;11.10;99.90;;;;;;5117293;28;19933;-68
2021/11/11 11:00:11;;;;;;;9.15;4.60;;;11.10;99.90;;;;;;5098421;28;20498;-68
2021/11/11 11:02:48;;;;;;;9.50;4.38;;;11.10;99.90;;;;;;5117523;28;20027;-68
2021/11/11 11:05:14;;;;;;;11.05;1.42;;;11.10;99.90;;;;;;5117519;28;20490;-68
2021/11/11 11:07:40;;;;;;;7.22;3.58;;;11.10;99.90;;;;;;5117571;28;20027;-68
2021/11/11 11:10:07;;;;;;;5.90;2.17;;;11.20;99.90;;;;;;5117039;28;20510;-68
2021/11/11 11:12:34;;;;;;;5.70;1.75;;;11.30;99.90;;;;;;5116597;28;20050;-68
2021/11/11 11:14:59;;;;;;;2.20;1.00;;;11.40;99.90;;;;;;5117034;28;20398;-68
2021/11/11 11:17:27;;;;;;;3.65;0.85;;;11.40;99.90;;;;;;5116922;28;20031;-68
2021/11/11 11:20:19;;;;;;;2.03;1.02;;;11.40;99.90;;;;;;5116841;28;20024;-68
2021/11/11 11:22:46;;;;;;;5.22;1.25;;;11.50;99.90;;;;;;5116872;28;20024;-68
2021/11/11 11:25:11;;;;;;;5.43;1.10;;;11.60;99.90;;;;;;5116517;28;20119;-68
2021/11/11 11:27:37;;;;;;;9.35;0.90;;;11.70;99.90;;;;;;5117046;28;20102;-68
2021/11/11 11:30:12;;;;;;;2.53;1.10;;;11.70;99.90;;;;;;5116526;28;20040;-68
2021/11/11 11:32:42;;;;;;;3.53;1.23;;;11.80;99.90;;;;;;5117046;28;20027;-68
2021/11/11 11:35:11;;;;;;;4.28;1.10;;;11.90;99.90;;;;;;5116140;28;20032;-68
2021/11/11 11:37:37;;;;;;;6.18;1.52;;;12.00;99.90;;;;;;5116469;28;20474;-68
2021/11/11 11:40:08;;;;;;;7.65;1.67;;;12.10;99.90;;;;;;5116198;28;20016;-68
2021/11/11 11:42:41;;;;;;;6.22;1.13;;;12.20;99.90;;;;;;5116819;28;20050;-68
2021/11/11 11:45:13;;;;;;;2.85;1.02;;;12.40;99.90;;;;;;5116792;28;20415;-68
2021/11/11 11:50:27;;;;;;;3.22;0.88;;;12.50;99.90;;;;;;5116540;28;20057;-68
2021/11/11 11:53:01;;;;;;;5.55;1.05;;;12.60;99.90;;;;;;5116660;28;20378;-68
2021/11/11 11:58:09;;;;;;;2.53;0.82;;;12.30;99.90;;;;;;5116052;28;20028;-68
2021/11/11 12:06:10;;;;;;;2.72;0.55;;;12.20;99.90;;;;;;5116394;28;20027;-68
2021/11/11 12:39:32;;;;;;;6.03;1.13;;;12.70;99.90;;;;;;5115698;28;20517;-69
2021/11/11 12:42:02;;;;;;;10.05;1.00;;;12.70;99.90;;;;;;5115343;28;20020;-69
2021/11/11 12:44:29;;;;;;;5.15;1.23;;;12.80;99.90;;;;;;5115320;28;20012;-69
2021/11/11 12:46:56;;;;;;;3.22;0.95;;;12.80;99.90;;;;;;5115246;28;20035;-71
2021/11/11 12:49:32;;;;;;;7.32;1.90;;;12.80;99.90;;;;;;5115192;28;20023;-71
2021/11/11 12:52:13;;;;;;;4.47;1.10;;;12.70;99.90;;;;;;5114761;28;20028;-71
2021/11/11 12:54:43;;;;;;;9.10;1.30;;;12.70;99.90;;;;;;5114856;28;20030;-71
2021/11/11 12:57:11;;;;;;;2.50;1.00;;;12.60;99.90;;;;;;5096707;28;20068;-72
2021/11/11 12:59:37;;;;;;;10.18;1.58;;;12.40;99.90;;;;;;5114858;28;20111;-72
2021/11/11 13:02:05;;;;;;;2.42;1.08;;;12.30;99.90;;;;;;5096654;28;20194;-72
2021/11/11 13:04:48;;;;;;;5.28;2.15;;;12.30;99.90;;;;;;5114639;28;20051;-71
2021/11/11 13:07:25;;;;;;;3.63;1.10;;;12.30;99.90;;;;;;5114983;28;20103;-72
2021/11/11 13:10:07;;;;;;;7.75;1.45;;;12.30;99.90;;;;;;5114724;28;20024;-71
2021/11/11 13:12:35;;;;;;;4.32;0.90;;;12.20;99.90;;;;;;5115080;28;20045;-71
2021/11/11 13:15:09;;;;;;;5.20;1.90;;;12.20;99.90;;;;;;5114424;28;20123;-71
2021/11/11 13:17:52;;;;;;;3.20;1.52;;;12.20;99.90;;;;;;5114357;28;20038;-71
2021/11/11 13:20:34;;;;;;;11.88;1.88;;;12.20;99.90;;;;;;5114668;28;20026;-72
2021/11/11 13:23:16;;;;;;;4.18;1.45;;;12.20;99.90;;;;;;5096641;28;20409;-71
2021/11/11 13:54:44;;;;;;;11.80;3.60;;;12.00;99.90;;;;;;5114137;28;20399;-66
2021/11/11 15:04:58;;;;;;;18.50;3.92;;;11.60;99.90;;;;;;5103429;28;20097;-66
2021/11/11 15:17:37;;;;;;;32.90;8.65;;;11.30;99.90;;;;;;5096257;28;20032;-66
2021/11/11 15:46:48;;;;;;;15.70;5.47;;;11.10;99.90;;;;;;5096510;28;20030;-66
2021/11/11 16:20:43;;;;;;;26.98;6.53;;;10.20;99.90;;;;;;5095593;28;19911;-66
2021/11/11 16:23:45;;;;;;;21.10;5.78;;;10.00;99.90;;;;;;5095595;28;20032;-66
2021/11/11 16:26:19;;;;;;;20.83;6.43;;;9.90;99.90;;;;;;5092871;28;20069;-66